Wetterdaten: aktuell Mittwoch, 30.07.2014 20:45
Datum Zeit Temperatur Feuchte Luftdruck Regen Wind Richtung Richtung Taupunkt Windchill
30.07.2014 20:45 22,8 C 88 % 1012,8 hPa 0,0 l/m 12,1 km/h (2 Bft) W22.5 275 20,7 C 22,8 C
30.07.2014 19:45 22,8 C 82 % 1011,8 hPa 0,0 l/m 0,6 km/h (0 Bft) W-SW 245 19,6 C 22,8 C
30.07.2014 18:45 22,8 C 78 % 1011,8 hPa 0,0 l/m 4,2 km/h (1 Bft) W45 280 18,8 C 22,8 C
30.07.2014 17:45 22,8 C 79 % 1011,8 hPa 0,0 l/m 6,1 km/h (2 Bft) W-NW45 285 19,0 C 22,8 C
30.07.2014 16:45 22,8 C 79 % 1011,8 hPa 0,0 l/m 7,6 km/h (2 Bft) W-NW22.5 290 19,0 C 22,8 C
30.07.2014 15:45 22,8 C 71 % 1011,8 hPa 0,0 l/m 9,9 km/h (2 Bft) W22.5 275 17,3 C 22,8 C
30.07.2014 14:45 22,8 C 68 % 1011,8 hPa 0,0 l/m 15,5 km/h (3 Bft) NW45 310 16,6 C 22,8 C
30.07.2014 13:45 22,8 C 68 % 1011,8 hPa 0,0 l/m 18,2 km/h (3 Bft) NW22.5 325 16,6 C 22,8 C
30.07.2014 12:45 22,8 C 78 % 1011,8 hPa 0,0 l/m 9,9 km/h (2 Bft) W-NW22.5 295 18,8 C 22,8 C
30.07.2014 11:45 22,8 C 95 % 1010,8 hPa 0,0 l/m 11,7 km/h (2 Bft) NW22.5 305 22,0 C 22,8 C
30.07.2014 10:45 22,8 C 99 % 1010,8 hPa 0,0 l/m 21,8 km/h (4 Bft) N-NW22.5 335 22,6 C 22,8 C
30.07.2014 09:45 22,8 C 99 % 1010,8 hPa 0,0 l/m 8,3 km/h (2 Bft) NW22.5 315 22,6 C 22,8 C
30.07.2014 08:45 22,8 C 99 % 1010,8 hPa 0,0 l/m 15,2 km/h (3 Bft) NW22.5 320 22,6 C 22,8 C
30.07.2014 07:45 22,8 C 99 % 1009,8 hPa 0,0 l/m 7,9 km/h (2 Bft) NW22.5 320 22,6 C 22,8 C
30.07.2014 06:45 22,8 C 99 % 1009,8 hPa 0,0 l/m 9,4 km/h (2 Bft) N-NW 330 22,6 C 22,8 C
30.07.2014 05:45 22,8 C 99 % 1008,8 hPa 0,0 l/m 15,6 km/h (3 Bft) NW22.5 325 22,6 C 22,8 C
30.07.2014 04:42 22,8 C 99 % 1008,8 hPa 0,0 l/m 21,0 km/h (4 Bft) NW22.5 320 22,6 C 22,8 C
30.07.2014 03:42 22,8 C 99 % 1008,8 hPa 1,8 l/m 14,5 km/h (3 Bft) NW22.5 325 22,6 C 22,8 C
30.07.2014 02:42 22,8 C 99 % 1008,8 hPa 0,0 l/m 16,5 km/h (3 Bft) N-NW 335 22,6 C 22,8 C
30.07.2014 01:42 22,8 C 99 % 1008,8 hPa 0,0 l/m 12,5 km/h (3 Bft) NW22.5 325 22,6 C 22,8 C
30.07.2014 00:42 22,8 C 99 % 1008,8 hPa 0,0 l/m 3,1 km/h (1 Bft) N-NW 330 22,6 C 22,8 C
29.07.2014 23:42 22,8 C 99 % 1008,8 hPa 1,1 l/m 12,7 km/h (3 Bft) N-NW22.5 345 22,6 C 22,8 C
29.07.2014 22:42 22,8 C 99 % 1008,8 hPa 2,2 l/m 20,0 km/h (4 Bft) N 360 22,6 C 22,8 C
29.07.2014 21:42 7,5 C 99 % 1010,0 hPa 0,4 l/m 7,8 km/h (2 Bft) NW 320 7,4 C 6,1 C
29.07.2014 21:00 4,9 C 99 % 1009,2 hPa 0,0 l/m 2,2 km/h (1 Bft) N-NW 335 4,8 C 4,9 C
_ Min-Zeit 21:00 14:51 22:30 - 20:06 - - 21:00 21:15
Minimum _ 4,9 C 65 % 1008,8 hPa - 0,1 km/h (0 Bft) - - 4,8 C 4,0 C
_ Max-Zeit 22:30 21:00 19:57 22:27 22:18 - - 22:30 22:30
Maximum _ 22,8 C 99 % 1012,8 hPa 1,1 l/m 38,6 km/h
N (5 Bft)
- - 22,6 C 22,8 C
Durchschnitt _ 20,8 C 91 % 1010,3 hPa #5,4 l/m 10,8 km/h (2 Bft) NW - 19,2 C 20,7 C